createdAt,value
2023-02-05T00:00:35.284Z,6.57
2023-02-05T00:03:04.436Z,5.53
2023-02-05T00:05:33.445Z,4.68
2023-02-05T00:08:04.063Z,4.20
2023-02-05T00:10:32.969Z,6.13
2023-02-05T00:13:01.645Z,4.63
2023-02-05T00:15:31.075Z,4.03
2023-02-05T00:18:00.213Z,5.18
2023-02-05T00:20:29.744Z,6.20
2023-02-05T00:22:58.309Z,4.63
2023-02-05T00:25:29.991Z,3.75
2023-02-05T00:27:58.569Z,4.25
2023-02-05T00:30:28.519Z,4.35
2023-02-05T00:32:57.170Z,4.65
2023-02-05T00:35:25.734Z,4.25
2023-02-05T00:37:54.356Z,4.10
2023-02-05T00:40:22.928Z,4.63
2023-02-05T00:42:52.904Z,4.97
2023-02-05T00:45:21.872Z,3.75
2023-02-05T00:47:50.662Z,4.20
2023-02-05T00:50:19.362Z,4.03
2023-02-05T00:52:48.341Z,4.05
2023-02-05T00:55:17.030Z,4.05
2023-02-05T00:57:45.578Z,4.50
2023-02-05T01:00:16.737Z,5.63
2023-02-05T01:02:45.434Z,4.10
2023-02-05T01:05:20.326Z,3.88
2023-02-05T01:07:48.893Z,4.10
2023-02-05T01:10:17.812Z,3.60
2023-02-05T01:12:46.398Z,3.83
2023-02-05T01:15:16.336Z,3.88
2023-02-05T01:17:44.995Z,3.80
2023-02-05T01:20:14.624Z,4.82
2023-02-05T01:22:43.342Z,4.20
2023-02-05T01:25:12.225Z,4.90
2023-02-05T01:27:41.229Z,4.15
2023-02-05T01:30:12.620Z,4.53
2023-02-05T01:32:42.910Z,3.75
2023-02-05T01:35:11.526Z,3.97
2023-02-05T01:37:40.140Z,4.55
2023-02-05T01:40:09.977Z,4.72
2023-02-05T01:42:38.482Z,3.70
2023-02-05T01:45:50.956Z,4.00
2023-02-05T01:48:24.071Z,4.97
2023-02-05T01:50:55.072Z,4.43
2023-02-05T01:53:26.266Z,3.85
2023-02-05T01:55:57.552Z,5.68
2023-02-05T01:58:27.723Z,4.90
2023-02-05T02:00:56.611Z,3.65
2023-02-05T02:03:28.008Z,3.95
2023-02-05T02:05:57.744Z,3.38
2023-02-05T02:08:26.453Z,3.83
2023-02-05T02:10:55.583Z,3.58
2023-02-05T02:13:24.509Z,3.72
2023-02-05T02:15:53.482Z,3.72
2023-02-05T02:18:28.142Z,3.72
2023-02-05T02:21:54.811Z,3.35
2023-02-05T02:24:57.134Z,3.85
2023-02-05T02:27:42.159Z,3.72
2023-02-05T02:30:15.922Z,3.28
2023-02-05T02:32:48.179Z,4.07
2023-02-05T02:35:21.018Z,3.33
2023-02-05T02:37:59.540Z,3.58
2023-02-05T02:40:32.831Z,4.60
2023-02-05T02:43:06.446Z,3.40
2023-02-05T02:45:36.909Z,3.33
2023-02-05T02:48:06.152Z,3.45
2023-02-05T02:50:37.584Z,3.20
2023-02-05T02:53:10.440Z,4.03
2023-02-05T02:55:43.690Z,3.20
2023-02-05T02:58:17.913Z,3.50
2023-02-05T03:00:47.003Z,3.45
2023-02-05T03:03:17.732Z,3.38
2023-02-05T03:05:46.776Z,3.30
2023-02-05T03:08:20.942Z,3.15
2023-02-05T03:10:54.355Z,3.20
2023-02-05T03:13:24.571Z,3.30
2023-02-05T03:15:53.411Z,3.17
2023-02-05T03:18:22.126Z,3.35
2023-02-05T03:20:55.382Z,5.57
2023-02-05T03:23:24.236Z,3.17
2023-02-05T03:25:53.563Z,3.28
2023-02-05T03:28:26.758Z,3.10
2023-02-05T03:30:59.552Z,3.38
2023-02-05T03:33:41.123Z,3.25
2023-02-05T03:36:19.122Z,2.72
2023-02-05T03:38:59.286Z,2.97
2023-02-05T03:41:54.120Z,3.45
2023-02-05T03:44:36.185Z,3.08
2023-02-05T03:47:07.200Z,3.40
2023-02-05T03:49:43.794Z,3.10
2023-02-05T03:52:14.840Z,3.22
2023-02-05T03:54:47.832Z,4.10
2023-02-05T03:57:19.954Z,3.15
2023-02-05T03:59:50.828Z,3.53
2023-02-05T04:02:20.234Z,3.58
2023-02-05T04:04:48.941Z,3.80
2023-02-05T04:07:17.459Z,3.40
2023-02-05T04:09:46.507Z,2.90
2023-02-05T04:12:15.083Z,4.35
2023-02-05T04:14:43.770Z,3.53
2023-02-05T04:17:14.299Z,4.20
2023-02-05T04:19:42.840Z,3.35
2023-02-05T04:22:11.619Z,2.90
2023-02-05T04:24:40.552Z,3.28
2023-02-05T04:27:09.410Z,2.95
2023-02-05T04:29:38.246Z,4.55
2023-02-05T04:32:07.284Z,3.35
2023-02-05T04:34:37.526Z,3.08
2023-02-05T04:37:06.132Z,3.40
2023-02-05T04:39:35.044Z,3.10
2023-02-05T04:42:03.852Z,4.47
2023-02-05T04:44:32.568Z,3.30
2023-02-05T04:47:01.705Z,3.35
2023-02-05T04:49:30.450Z,3.17
2023-02-05T04:52:00.338Z,4.03
2023-02-05T04:54:29.981Z,3.17
2023-02-05T04:56:58.662Z,3.20
2023-02-05T04:59:30.150Z,2.90
2023-02-05T05:01:59.151Z,3.10
2023-02-05T05:04:28.259Z,3.60
2023-02-05T05:06:57.038Z,3.40
2023-02-05T05:09:27.320Z,2.65
2023-02-05T05:11:56.456Z,3.13
2023-02-05T05:14:25.320Z,5.75
2023-02-05T05:16:54.062Z,2.90
2023-02-05T05:19:22.774Z,3.38
2023-02-05T05:21:52.006Z,4.03
2023-02-05T05:24:20.696Z,4.88
2023-02-05T05:26:50.830Z,2.80
2023-02-05T05:29:20.689Z,2.95
2023-02-05T05:31:49.373Z,3.70
2023-02-05T05:34:18.048Z,3.30
2023-02-05T05:36:47.738Z,4.20
2023-02-05T05:39:33.889Z,3.75
2023-02-05T05:42:21.642Z,3.53
2023-02-05T05:44:52.232Z,5.03
2023-02-05T05:47:21.047Z,2.95
2023-02-05T05:49:49.755Z,4.60
2023-02-05T05:52:18.622Z,4.40
2023-02-05T05:54:47.348Z,3.00
2023-02-05T05:57:17.667Z,3.65
2023-02-05T05:59:46.285Z,3.35
2023-02-05T06:02:15.641Z,3.75
2023-02-05T06:04:44.341Z,3.63
2023-02-05T06:07:13.066Z,3.35
2023-02-05T06:09:42.318Z,3.45
2023-02-05T06:12:11.803Z,3.55
2023-02-05T06:14:42.004Z,3.90
2023-02-05T06:17:10.808Z,5.85
2023-02-05T06:19:39.372Z,4.13
2023-02-05T06:22:08.216Z,3.55
2023-02-05T06:24:36.903Z,3.55
2023-02-05T06:27:05.579Z,3.40
2023-02-05T06:29:34.506Z,3.15
2023-02-05T06:32:06.530Z,3.40
2023-02-05T06:34:35.240Z,5.72
2023-02-05T06:37:04.463Z,3.30
2023-02-05T06:39:33.500Z,3.42
2023-02-05T06:42:02.174Z,3.85
2023-02-05T06:44:30.982Z,3.88
2023-02-05T06:47:00.129Z,3.60
2023-02-05T06:49:30.148Z,4.00
2023-02-05T06:51:59.180Z,5.07
2023-02-05T06:54:27.973Z,4.30
2023-02-05T06:56:56.611Z,5.25
2023-02-05T06:59:25.761Z,5.00
2023-02-05T07:01:54.361Z,4.65
2023-02-05T07:04:23.438Z,4.15
2023-02-05T07:06:55.693Z,7.28
2023-02-05T07:09:24.447Z,3.88
2023-02-05T07:11:54.050Z,7.53
2023-02-05T07:14:22.801Z,6.55
2023-02-05T07:16:51.880Z,4.68
2023-02-05T07:19:20.637Z,7.80
2023-02-05T07:21:49.613Z,5.78
2023-02-05T07:24:19.631Z,5.22
2023-02-05T07:26:48.810Z,7.72
2023-02-05T07:29:17.573Z,4.07
2023-02-05T07:31:46.336Z,6.78
2023-02-05T07:34:15.700Z,7.20
2023-02-05T07:36:44.309Z,6.47
2023-02-05T07:39:13.043Z,4.78
2023-02-05T07:41:43.355Z,5.43
2023-02-05T07:44:12.076Z,5.63
2023-02-05T07:46:40.913Z,5.13
2023-02-05T07:49:11.571Z,4.70
2023-02-05T07:51:40.264Z,5.60
2023-02-05T07:54:09.222Z,4.72
2023-02-05T07:56:38.031Z,4.50
2023-02-05T07:59:08.318Z,10.60
2023-02-05T08:01:37.196Z,6.40
2023-02-05T08:04:06.594Z,4.35
2023-02-05T08:06:35.288Z,3.90
2023-02-05T08:09:04.088Z,4.97
2023-02-05T08:11:33.120Z,8.23
2023-02-05T08:14:02.256Z,5.35
2023-02-05T08:16:32.583Z,7.22
2023-02-05T08:19:01.638Z,6.13
2023-02-05T08:21:30.383Z,4.60
2023-02-05T08:24:01.252Z,5.13
2023-02-05T08:26:30.040Z,5.22
2023-02-05T08:29:00.097Z,5.28
2023-02-05T08:31:28.807Z,4.63
2023-02-05T08:34:00.386Z,5.32
2023-02-05T08:36:29.228Z,6.05
2023-02-05T08:38:57.929Z,4.68
2023-02-05T08:41:26.750Z,7.50
2023-02-05T08:43:55.398Z,5.03
2023-02-05T08:46:31.617Z,5.65
2023-02-05T08:49:07.519Z,5.38
2023-02-05T08:51:37.312Z,4.78
2023-02-05T08:54:09.347Z,6.38
2023-02-05T08:56:38.350Z,5.63
2023-02-05T08:59:07.069Z,5.90
2023-02-05T09:01:37.338Z,20.88
2023-02-05T09:04:07.761Z,9.45
2023-02-05T09:06:37.004Z,20.05
2023-02-05T09:09:05.843Z,22.15
2023-02-05T09:11:34.794Z,59.60
2023-02-05T09:14:04.136Z,70.32
2023-02-05T09:16:32.920Z,36.28
2023-02-05T09:19:02.120Z,35.70
2023-02-05T09:21:32.342Z,43.90
2023-02-05T09:24:01.027Z,59.53
2023-02-05T09:26:30.153Z,50.53
2023-02-05T09:28:59.430Z,65.53
2023-02-05T09:31:28.590Z,45.08
2023-02-05T09:33:57.520Z,54.53
2023-02-05T09:36:26.157Z,67.53
2023-02-05T09:39:11.866Z,64.10
2023-02-05T09:41:47.626Z,71.63
2023-02-05T09:44:19.515Z,62.60
2023-02-05T09:46:53.275Z,60.13
2023-02-05T09:49:27.749Z,57.35
2023-02-05T09:52:01.089Z,51.30
2023-02-05T09:54:33.465Z,60.10
2023-02-05T09:57:06.075Z,50.42
2023-02-05T09:59:35.280Z,48.65
2023-02-05T10:02:14.560Z,50.55
2023-02-05T10:04:43.584Z,54.20
2023-02-05T10:07:29.366Z,44.55
2023-02-05T10:10:27.733Z,46.75
2023-02-05T10:13:29.268Z,49.25
2023-02-05T10:16:41.194Z,41.53
2023-02-05T10:19:47.649Z,41.03
2023-02-05T10:22:20.680Z,43.58
2023-02-05T10:25:34.945Z,41.10
2023-02-05T10:28:10.604Z,42.83
2023-02-05T10:30:44.310Z,41.67
2023-02-05T10:33:17.989Z,36.30
2023-02-05T10:35:51.198Z,41.35
2023-02-05T10:38:23.991Z,43.65
2023-02-05T10:40:59.395Z,45.78
2023-02-05T10:43:30.980Z,41.67
2023-02-05T10:45:59.814Z,37.38
2023-02-05T10:48:42.770Z,33.17
2023-02-05T10:51:14.094Z,36.55
2023-02-05T10:53:42.785Z,36.60
2023-02-05T10:56:17.946Z,32.55
2023-02-05T10:58:49.848Z,35.58
2023-02-05T11:01:20.367Z,31.63
2023-02-05T11:03:55.300Z,31.58
2023-02-05T11:06:25.386Z,33.65
2023-02-05T11:08:54.100Z,33.10
2023-02-05T11:11:28.035Z,33.58
2023-02-05T11:13:58.879Z,33.40
2023-02-05T11:16:37.864Z,28.80
2023-02-05T11:19:06.735Z,27.15
2023-02-05T11:21:52.294Z,30.05
2023-02-05T11:24:28.263Z,31.20
2023-02-05T11:29:50.980Z,29.75
2023-02-05T11:32:21.183Z,29.00
2023-02-05T11:34:49.920Z,28.88
2023-02-05T11:37:19.757Z,30.83
2023-02-05T11:39:48.896Z,29.85
2023-02-05T11:42:21.314Z,28.52
2023-02-05T11:44:53.670Z,27.52
2023-02-05T11:47:27.939Z,31.30
2023-02-05T11:49:56.603Z,27.98
2023-02-05T11:52:28.712Z,28.13
2023-02-05T11:54:57.528Z,30.27
2023-02-05T11:57:35.557Z,28.00
2023-02-05T12:00:22.256Z,27.92
2023-02-05T12:02:54.128Z,28.40
2023-02-05T12:05:25.341Z,25.23
2023-02-05T12:07:56.612Z,24.55
2023-02-05T12:10:30.350Z,23.25
2023-02-05T12:13:07.329Z,27.35
2023-02-05T12:15:43.027Z,21.25
2023-02-05T12:18:20.548Z,26.42
2023-02-05T12:20:52.422Z,22.95
2023-02-05T12:23:35.426Z,25.65
2023-02-05T12:26:21.984Z,22.88
2023-02-05T12:28:58.083Z,23.50
2023-02-05T12:31:37.800Z,25.13
2023-02-05T12:34:17.663Z,20.13
2023-02-05T12:37:10.960Z,21.02
2023-02-05T12:39:44.562Z,22.38
2023-02-05T12:42:26.143Z,18.42
2023-02-05T12:45:36.774Z,21.60
2023-02-05T12:48:32.478Z,18.52
2023-02-05T12:51:11.245Z,19.65
2023-02-05T12:53:58.023Z,22.08
2023-02-05T12:56:41.356Z,19.58
2023-02-05T12:59:15.541Z,20.40
2023-02-05T13:01:48.166Z,20.08
2023-02-05T13:04:24.231Z,23.50
2023-02-05T13:06:56.603Z,22.35
2023-02-05T13:09:30.495Z,21.00
2023-02-05T13:12:05.104Z,22.15
2023-02-05T13:14:39.381Z,19.58
2023-02-05T13:17:13.721Z,18.80
2023-02-05T13:19:46.303Z,16.25
2023-02-05T13:22:36.181Z,19.83
2023-02-05T13:25:40.959Z,18.55
2023-02-05T13:28:42.472Z,16.60
2023-02-05T13:31:16.717Z,15.98
2023-02-05T13:33:45.590Z,17.88
2023-02-05T13:36:56.423Z,19.08
2023-02-05T13:39:59.943Z,18.02
2023-02-05T13:42:44.390Z,22.65
2023-02-05T13:45:28.869Z,17.88
2023-02-05T13:48:12.684Z,17.85
2023-02-05T13:51:23.375Z,17.60
2023-02-05T13:54:20.706Z,15.82
2023-02-05T13:56:50.836Z,14.13
2023-02-05T13:59:23.453Z,18.20
2023-02-05T14:02:07.838Z,16.10
2023-02-05T14:04:39.674Z,19.15
2023-02-05T14:07:10.468Z,14.82
2023-02-05T14:09:43.175Z,14.52
2023-02-05T14:15:25.999Z,17.25
2023-02-05T14:17:56.152Z,16.75
2023-02-05T14:20:34.473Z,15.93
2023-02-05T14:23:03.543Z,15.27
2023-02-05T14:26:11.981Z,11.73
2023-02-05T14:28:51.739Z,14.48
2023-02-05T14:31:49.691Z,15.77
2023-02-05T14:34:49.289Z,13.23
2023-02-05T14:37:37.618Z,15.40
2023-02-05T14:40:24.886Z,17.05
2023-02-05T14:43:08.455Z,13.77
2023-02-05T14:45:44.749Z,14.98
2023-02-05T14:48:21.947Z,11.13
2023-02-05T14:51:05.699Z,13.40
2023-02-05T14:53:34.635Z,12.88
2023-02-05T14:56:03.357Z,12.07
2023-02-05T14:58:36.008Z,12.68
2023-02-05T15:01:44.077Z,11.45
2023-02-05T15:04:40.125Z,12.50
2023-02-05T15:07:12.509Z,11.38
2023-02-05T15:09:45.321Z,11.57
2023-02-05T15:12:53.932Z,10.68
2023-02-05T15:15:33.973Z,10.77
2023-02-05T15:18:21.864Z,13.20
2023-02-05T15:20:50.797Z,11.70
2023-02-05T15:23:36.191Z,12.65
2023-02-05T15:26:06.816Z,11.88
2023-02-05T15:28:38.244Z,9.88
2023-02-05T15:31:28.625Z,11.55
2023-02-05T15:34:03.569Z,11.32
2023-02-05T15:36:36.412Z,13.48
2023-02-05T15:39:20.974Z,12.82
2023-02-05T15:41:49.879Z,10.98
2023-02-05T15:44:24.914Z,10.88
2023-02-05T15:46:54.912Z,12.23
2023-02-05T15:49:41.853Z,12.20
2023-02-05T15:52:18.173Z,10.27
2023-02-05T15:54:46.911Z,8.90
2023-02-05T15:57:20.311Z,12.10
2023-02-05T15:59:49.089Z,10.82
2023-02-05T16:02:20.645Z,10.38
2023-02-05T16:04:55.819Z,14.25
2023-02-05T16:07:26.561Z,13.93
2023-02-05T16:09:57.324Z,11.52
2023-02-05T16:12:26.185Z,11.43
2023-02-05T16:15:02.370Z,9.38
2023-02-05T16:17:37.419Z,12.35
2023-02-05T16:20:26.847Z,10.68
2023-02-05T16:22:57.345Z,11.07
2023-02-05T16:25:36.047Z,8.80
2023-02-05T16:28:07.255Z,9.82
2023-02-05T16:30:40.641Z,9.57
2023-02-05T16:33:19.618Z,9.98
2023-02-05T16:35:49.179Z,9.88
2023-02-05T16:38:19.344Z,11.13
2023-02-05T16:40:49.981Z,9.77
2023-02-05T16:43:30.341Z,9.57
2023-02-05T16:46:26.708Z,9.23
2023-02-05T16:48:58.998Z,9.27
2023-02-05T16:51:32.883Z,11.00
2023-02-05T16:54:01.985Z,10.30
2023-02-05T16:56:32.092Z,9.82
2023-02-05T16:59:01.851Z,10.65
2023-02-05T17:01:33.501Z,11.88
2023-02-05T17:04:04.525Z,10.65
2023-02-05T17:06:35.042Z,10.35
2023-02-05T17:09:05.086Z,10.95
2023-02-05T17:11:37.465Z,9.80
2023-02-05T17:14:22.433Z,12.05
2023-02-05T17:16:56.621Z,16.15
2023-02-05T17:19:28.189Z,9.98
2023-02-05T17:22:20.424Z,13.15
2023-02-05T17:24:50.133Z,7.85
2023-02-05T17:27:19.338Z,10.15
2023-02-05T17:29:48.193Z,11.18
2023-02-05T17:32:18.212Z,8.93
2023-02-05T17:34:48.522Z,11.10
2023-02-05T17:37:17.467Z,11.68
2023-02-05T17:39:46.102Z,11.13
2023-02-05T17:42:21.002Z,9.32
2023-02-05T17:44:49.771Z,9.50
2023-02-05T17:47:18.888Z,12.65
2023-02-05T17:49:48.668Z,12.75
2023-02-05T17:52:17.255Z,13.50
2023-02-05T17:54:46.584Z,13.45
2023-02-05T17:57:18.382Z,9.80
2023-02-05T17:59:47.285Z,10.27
2023-02-05T18:02:15.982Z,9.05
2023-02-05T18:04:44.957Z,12.98
2023-02-05T18:07:21.061Z,14.40
2023-02-05T18:09:52.517Z,10.23
2023-02-05T18:12:21.783Z,9.80
2023-02-05T18:14:50.738Z,12.00
2023-02-05T18:17:19.488Z,8.93
2023-02-05T18:19:48.483Z,8.57
2023-02-05T18:22:18.527Z,8.00
2023-02-05T18:24:47.362Z,10.85
2023-02-05T18:27:16.687Z,8.80
2023-02-05T18:29:45.484Z,7.70
2023-02-05T18:32:14.193Z,9.32
2023-02-05T18:34:43.353Z,9.93
2023-02-05T18:37:14.279Z,12.50
2023-02-05T18:39:44.197Z,10.13
2023-02-05T18:42:12.926Z,13.93
2023-02-05T18:44:41.573Z,7.53
2023-02-05T18:47:11.555Z,12.70
2023-02-05T18:49:40.270Z,12.68
2023-02-05T18:52:10.325Z,11.13
2023-02-05T18:54:39.199Z,12.85
2023-02-05T18:57:09.258Z,15.07
2023-02-05T18:59:38.216Z,11.98
2023-02-05T19:02:07.139Z,12.45
2023-02-05T19:04:36.208Z,12.90
2023-02-05T19:07:05.666Z,9.40
2023-02-05T19:09:34.469Z,9.32
2023-02-05T19:12:03.145Z,11.90
2023-02-05T19:14:33.979Z,11.20
2023-02-05T19:17:02.782Z,10.13
2023-02-05T19:19:31.759Z,9.77
2023-02-05T19:22:02.309Z,10.50
2023-02-05T19:24:30.911Z,12.85
2023-02-05T19:27:00.110Z,11.05
2023-02-05T19:29:28.962Z,10.60
2023-02-05T19:31:59.304Z,10.13
2023-02-05T19:34:29.231Z,12.48
2023-02-05T19:36:57.954Z,9.18
2023-02-05T19:39:27.125Z,9.10
2023-02-05T19:41:56.496Z,12.38
2023-02-05T19:44:27.393Z,9.32
2023-02-05T19:46:56.322Z,8.90
2023-02-05T19:49:26.436Z,10.10
2023-02-05T19:51:56.587Z,9.82
2023-02-05T19:54:25.338Z,9.82
2023-02-05T19:56:54.081Z,8.55
2023-02-05T19:59:22.633Z,10.48
2023-02-05T20:01:51.650Z,10.57
2023-02-05T20:04:22.415Z,8.63
2023-02-05T20:06:55.198Z,11.18
2023-02-05T20:09:23.974Z,10.93
2023-02-05T20:11:54.453Z,9.55
2023-02-05T20:14:23.554Z,11.30
2023-02-05T20:16:52.732Z,10.82
2023-02-05T20:19:21.644Z,8.95
2023-02-05T20:21:52.320Z,11.30
2023-02-05T20:24:20.924Z,11.02
2023-02-05T20:26:49.849Z,8.85
2023-02-05T20:29:35.664Z,7.97
2023-02-05T20:32:05.887Z,9.80
2023-02-05T20:34:36.269Z,10.35
2023-02-05T20:37:09.636Z,7.80
2023-02-05T20:39:41.982Z,7.82
2023-02-05T20:42:13.600Z,8.52
2023-02-05T20:44:42.495Z,9.27
2023-02-05T20:47:14.381Z,9.50
2023-02-05T20:49:43.408Z,10.40
2023-02-05T20:52:13.755Z,8.75
2023-02-05T20:54:42.730Z,8.20
2023-02-05T20:57:11.352Z,9.00
2023-02-05T20:59:40.332Z,11.35
2023-02-05T21:02:10.488Z,10.98
2023-02-05T21:04:39.245Z,10.25
2023-02-05T21:07:07.889Z,10.00
2023-02-05T21:09:41.136Z,10.05
2023-02-05T21:12:09.959Z,9.52
2023-02-05T21:14:39.074Z,10.15
2023-02-05T21:17:09.592Z,9.40
2023-02-05T21:19:39.317Z,9.15
2023-02-05T21:22:08.046Z,9.98
2023-02-05T21:24:36.892Z,10.48
2023-02-05T21:27:07.669Z,10.13
2023-02-05T21:29:36.520Z,9.13
2023-02-05T21:32:05.684Z,10.63
2023-02-05T21:34:34.509Z,8.43
2023-02-05T21:37:03.222Z,9.00
2023-02-05T21:39:32.043Z,8.30
2023-02-05T21:42:01.065Z,8.95
2023-02-05T21:44:31.237Z,9.43
2023-02-05T21:46:59.802Z,8.32
2023-02-05T21:49:28.884Z,8.05
2023-02-05T21:51:57.565Z,9.05
2023-02-05T21:54:26.234Z,8.77
2023-02-05T21:56:55.104Z,11.23
2023-02-05T21:59:23.716Z,10.77
2023-02-05T22:01:53.716Z,11.35
2023-02-05T22:04:22.560Z,8.50
2023-02-05T22:06:51.649Z,10.60
2023-02-05T22:09:20.928Z,10.05
2023-02-05T22:11:50.650Z,7.63
2023-02-05T22:14:19.338Z,7.43
2023-02-05T22:16:47.970Z,8.05
2023-02-05T22:19:18.087Z,10.38
2023-02-05T22:21:46.739Z,9.07
2023-02-05T22:24:16.891Z,9.93
2023-02-05T22:26:46.223Z,9.07
2023-02-05T22:29:15.867Z,9.05
2023-02-05T22:31:45.477Z,9.90
2023-02-05T22:34:14.458Z,10.07
2023-02-05T22:36:44.580Z,9.40
2023-02-05T22:39:13.146Z,8.65
2023-02-05T22:41:43.055Z,8.02
2023-02-05T22:44:12.382Z,7.25
2023-02-05T22:46:42.597Z,9.48
2023-02-05T22:49:12.561Z,8.70
2023-02-05T22:51:43.016Z,10.05
2023-02-05T22:54:13.317Z,8.65
2023-02-05T22:56:41.934Z,8.02
2023-02-05T22:59:10.782Z,7.65
2023-02-05T23:01:39.560Z,9.80
2023-02-05T23:04:09.995Z,9.00
2023-02-05T23:06:39.895Z,7.93
2023-02-05T23:09:11.408Z,8.38
2023-02-05T23:11:40.054Z,10.25
2023-02-05T23:14:09.526Z,8.68
2023-02-05T23:16:40.445Z,8.07
2023-02-05T23:19:10.905Z,8.25
2023-02-05T23:21:39.834Z,11.15
2023-02-05T23:24:10.066Z,9.57
2023-02-05T23:26:42.176Z,9.70
2023-02-05T23:29:11.030Z,8.80
2023-02-05T23:31:42.708Z,8.88
2023-02-05T23:34:11.398Z,8.18
2023-02-05T23:36:40.035Z,9.77
2023-02-05T23:39:10.111Z,9.05
2023-02-05T23:41:40.223Z,8.27
2023-02-05T23:44:12.240Z,9.43
2023-02-05T23:46:41.025Z,10.02
2023-02-05T23:49:09.927Z,8.02
2023-02-05T23:51:38.930Z,9.60
2023-02-05T23:54:09.333Z,8.90
2023-02-05T23:56:38.492Z,8.80
2023-02-05T23:59:07.139Z,8.35
